createdAt,value
2022-09-05T00:00:06.049Z,79.60
2022-09-05T00:03:01.640Z,80.10
2022-09-05T00:05:55.493Z,80.60
2022-09-05T00:08:40.745Z,79.30
2022-09-05T00:11:39.656Z,79.40
2022-09-05T00:14:55.891Z,79.60
2022-09-05T00:17:42.453Z,80.80
2022-09-05T00:24:23.129Z,81.40
2022-09-05T00:24:31.894Z,80.60
2022-09-05T00:26:23.342Z,80.40
2022-09-05T00:29:02.716Z,81.80
2022-09-05T00:31:54.426Z,82.70
2022-09-05T00:34:55.176Z,82.40
2022-09-05T00:37:34.798Z,83.20
2022-09-05T00:40:20.075Z,82.60
2022-09-05T00:42:52.434Z,83.40
2022-09-05T00:45:29.163Z,84.00
2022-09-05T00:48:04.049Z,82.30
2022-09-05T00:50:40.048Z,81.60
2022-09-05T00:53:17.844Z,81.20
2022-09-05T00:56:00.297Z,82.20
2022-09-05T00:58:43.672Z,81.60
2022-09-05T01:01:28.324Z,83.50
2022-09-05T01:04:12.069Z,84.20
2022-09-05T01:06:59.737Z,83.90
2022-09-05T01:09:46.768Z,83.90
2022-09-05T01:12:34.682Z,84.00
2022-09-05T01:15:14.440Z,83.00
2022-09-05T01:18:18.545Z,82.40
2022-09-05T01:21:18.885Z,84.20
2022-09-05T01:24:03.180Z,84.00
2022-09-05T01:26:57.560Z,83.70
2022-09-05T01:29:38.464Z,84.10
2022-09-05T01:32:31.685Z,84.10
2022-09-05T01:35:25.709Z,83.80
2022-09-05T01:38:03.003Z,85.30
2022-09-05T01:40:43.580Z,85.70
2022-09-05T01:43:20.488Z,85.70
2022-09-05T01:45:52.645Z,85.70
2022-09-05T01:48:32.635Z,85.50
2022-09-05T01:51:28.014Z,85.90
2022-09-05T01:54:14.132Z,85.60
2022-09-05T01:57:08.579Z,84.80
2022-09-05T01:59:46.136Z,84.80
2022-09-05T02:02:50.106Z,84.50
2022-09-05T02:05:48.675Z,84.10
2022-09-05T02:08:38.906Z,83.30
2022-09-05T02:11:11.367Z,84.40
2022-09-05T02:13:55.640Z,85.70
2022-09-05T02:16:29.510Z,85.70
2022-09-05T02:19:05.022Z,85.50
2022-09-05T02:21:56.384Z,85.70
2022-09-05T02:24:28.986Z,85.00
2022-09-05T02:28:02.192Z,84.80
2022-09-05T02:30:09.797Z,84.30
2022-09-05T02:32:48.041Z,84.90
2022-09-05T02:35:24.956Z,84.90
2022-09-05T02:40:54.637Z,85.80
2022-09-05T02:45:09.704Z,86.70
2022-09-05T02:45:13.858Z,86.60
2022-09-05T02:46:42.092Z,88.40
2022-09-05T02:50:04.923Z,88.80
2022-09-05T02:57:28.534Z,90.10
2022-09-05T02:57:36.181Z,90.50
2022-09-05T02:58:05.373Z,89.40
2022-09-05T03:00:42.777Z,88.80
2022-09-05T03:03:28.326Z,88.90
2022-09-05T03:06:01.467Z,87.70
2022-09-05T03:08:55.899Z,87.20
2022-09-05T03:12:28.369Z,88.00
2022-09-05T03:15:33.684Z,87.90
2022-09-05T03:18:52.186Z,90.10
2022-09-05T03:21:55.226Z,90.80
2022-09-05T03:24:59.365Z,90.10
2022-09-05T03:28:27.293Z,90.00
2022-09-05T03:31:24.341Z,90.00
2022-09-05T03:34:30.274Z,89.70
2022-09-05T03:37:27.451Z,89.50
2022-09-05T03:40:46.541Z,90.00
2022-09-05T03:44:05.220Z,90.00
2022-09-05T03:47:01.415Z,89.10
2022-09-05T03:52:10.467Z,91.40
2022-09-05T03:57:15.450Z,90.90
2022-09-05T03:57:17.662Z,90.40
2022-09-05T03:59:47.251Z,90.00
2022-09-05T04:08:11.094Z,92.30
2022-09-05T04:08:17.690Z,92.70
2022-09-05T04:08:34.447Z,92.50
2022-09-05T04:11:05.047Z,92.90
2022-09-05T04:13:41.542Z,93.40
2022-09-05T04:16:15.148Z,94.30
2022-09-05T04:18:47.411Z,94.40
2022-09-05T04:21:19.914Z,95.40
2022-09-05T04:24:03.200Z,94.50
2022-09-05T04:26:53.442Z,93.80
2022-09-05T04:29:29.810Z,92.20
2022-09-05T04:32:19.040Z,91.60
2022-09-05T04:35:15.637Z,92.70
2022-09-05T04:37:55.050Z,91.60
2022-09-05T04:40:58.287Z,92.70
2022-09-05T04:43:32.183Z,92.10
2022-09-05T04:46:14.735Z,92.10
2022-09-05T04:48:54.285Z,92.50
2022-09-05T04:52:00.765Z,91.70
2022-09-05T04:54:38.216Z,92.10
2022-09-05T04:57:19.325Z,92.90
2022-09-05T05:05:58.818Z,91.60
2022-09-05T05:06:11.231Z,91.10
2022-09-05T05:06:17.933Z,90.40
2022-09-05T05:08:41.189Z,90.40
2022-09-05T05:16:52.280Z,91.70
2022-09-05T05:18:06.544Z,92.90
2022-09-05T05:18:10.722Z,94.10
2022-09-05T05:20:42.224Z,94.50
2022-09-05T05:22:53.928Z,94.30
2022-09-05T05:25:22.282Z,94.40
2022-09-05T05:28:10.331Z,94.70
2022-09-05T05:30:51.777Z,94.70
2022-09-05T05:33:31.984Z,94.40
2022-09-05T05:36:03.515Z,93.70
2022-09-05T05:38:40.638Z,93.50
2022-09-05T05:41:20.493Z,92.90
2022-09-05T05:43:50.011Z,93.20
2022-09-05T05:46:29.453Z,92.00
2022-09-05T05:49:11.096Z,91.20
2022-09-05T05:52:02.168Z,90.60
2022-09-05T05:54:38.058Z,91.90
2022-09-05T05:57:35.601Z,93.10
2022-09-05T06:00:14.802Z,94.80
2022-09-05T06:03:26.803Z,95.80
2022-09-05T06:06:15.802Z,95.70
2022-09-05T06:11:18.076Z,95.90
2022-09-05T06:15:00.481Z,97.00
2022-09-05T06:15:51.897Z,96.50
2022-09-05T06:18:55.317Z,96.60
2022-09-05T06:22:09.356Z,97.10
2022-09-05T06:25:16.811Z,98.20
2022-09-05T06:28:19.012Z,97.80
2022-09-05T06:31:25.963Z,96.60
2022-09-05T06:34:01.291Z,96.60
2022-09-05T06:36:50.009Z,96.90
2022-09-05T06:39:27.530Z,97.00
2022-09-05T06:42:43.014Z,97.10
2022-09-05T06:45:28.175Z,96.60
2022-09-05T06:48:04.179Z,96.90
2022-09-05T06:51:09.172Z,95.60
2022-09-05T06:53:55.751Z,95.20
2022-09-05T06:56:40.046Z,96.40
2022-09-05T06:59:41.960Z,95.00
2022-09-05T07:02:55.030Z,94.90
2022-09-05T07:05:38.695Z,94.90
2022-09-05T07:08:36.593Z,93.80
2022-09-05T07:11:15.726Z,92.90
2022-09-05T07:13:55.706Z,91.60
2022-09-05T07:16:38.906Z,91.40
2022-09-05T07:19:26.569Z,90.40
2022-09-05T07:22:29.486Z,91.20
2022-09-05T07:25:09.199Z,91.10
2022-09-05T07:27:41.903Z,90.90
2022-09-05T07:30:29.377Z,90.80
2022-09-05T07:32:59.832Z,91.50
2022-09-05T07:35:31.218Z,91.10
2022-09-05T07:38:15.624Z,90.60
2022-09-05T07:40:51.584Z,90.20
2022-09-05T07:43:23.728Z,88.90
2022-09-05T07:45:59.617Z,88.30
2022-09-05T07:48:34.812Z,88.20
2022-09-05T07:55:57.495Z,87.40
2022-09-05T07:56:59.809Z,85.40
2022-09-05T07:57:27.184Z,82.60
2022-09-05T07:59:41.306Z,79.70
2022-09-05T08:02:11.600Z,76.60
2022-09-05T08:04:41.677Z,74.10
2022-09-05T08:07:48.903Z,71.50
2022-09-05T08:10:10.474Z,69.80
2022-09-05T08:13:23.058Z,68.10
2022-09-05T08:16:06.667Z,67.20
2022-09-05T08:18:23.648Z,65.90
2022-09-05T08:20:55.877Z,65.10
2022-09-05T08:23:44.333Z,64.20
2022-09-05T08:26:14.441Z,63.80
2022-09-05T08:28:55.494Z,62.80
2022-09-05T08:31:31.628Z,62.30
2022-09-05T08:34:02.272Z,62.30
2022-09-05T08:36:36.161Z,62.10
2022-09-05T08:39:08.043Z,61.60
2022-09-05T08:41:51.442Z,61.00
2022-09-05T08:46:44.172Z,60.70
2022-09-05T08:47:43.346Z,60.30
2022-09-05T08:50:27.047Z,59.90
2022-09-05T08:53:45.183Z,59.70
2022-09-05T08:56:04.888Z,59.90
2022-09-05T08:59:27.635Z,59.10
2022-09-05T09:02:44.957Z,60.60
2022-09-05T09:05:14.189Z,61.00
2022-09-05T09:07:50.928Z,63.30
2022-09-05T09:10:44.514Z,64.10
2022-09-05T09:13:42.106Z,65.50
2022-09-05T09:16:18.301Z,65.70
2022-09-05T09:19:06.227Z,66.30
2022-09-05T09:21:41.612Z,67.90
2022-09-05T09:24:23.188Z,68.40
2022-09-05T09:26:56.334Z,68.80
2022-09-05T09:29:26.614Z,68.90
2022-09-05T09:32:02.817Z,68.80
2022-09-05T09:34:52.804Z,68.80
2022-09-05T09:37:55.315Z,64.50
2022-09-05T09:41:14.668Z,67.40
2022-09-05T09:44:07.438Z,67.90
2022-09-05T09:46:42.358Z,67.50
2022-09-05T09:49:34.465Z,67.70
2022-09-05T09:52:37.668Z,67.70
2022-09-05T09:55:40.876Z,67.60
2022-09-05T09:58:32.093Z,67.60
2022-09-05T10:01:35.110Z,67.60
2022-09-05T10:10:34.461Z,67.70
2022-09-05T10:10:56.269Z,68.00
2022-09-05T10:14:48.995Z,66.80
2022-09-05T10:17:42.509Z,66.80
2022-09-05T10:20:41.709Z,67.10
2022-09-05T10:23:38.628Z,67.20
2022-09-05T10:27:01.609Z,67.30
2022-09-05T10:29:44.645Z,67.40
2022-09-05T10:35:05.941Z,67.40
2022-09-05T10:35:22.278Z,67.20
2022-09-05T10:38:04.365Z,67.20
2022-09-05T10:41:13.821Z,67.30
2022-09-05T10:43:31.034Z,67.40
2022-09-05T10:46:06.930Z,67.50
2022-09-05T10:48:46.426Z,67.30
2022-09-05T10:51:27.221Z,67.00
2022-09-05T10:54:10.706Z,66.90
2022-09-05T10:56:43.372Z,67.00
2022-09-05T11:02:18.675Z,67.00
2022-09-05T11:02:24.867Z,67.00
2022-09-05T11:05:07.202Z,66.90
2022-09-05T11:07:42.603Z,66.80
2022-09-05T11:10:19.230Z,66.70
2022-09-05T11:13:08.980Z,66.40
2022-09-05T11:16:04.355Z,66.30
2022-09-05T11:18:59.039Z,66.10
2022-09-05T11:21:41.376Z,65.80
2022-09-05T11:24:27.105Z,65.80
2022-09-05T11:27:23.707Z,65.60
2022-09-05T11:29:52.220Z,64.20
2022-09-05T11:39:45.767Z,65.00
2022-09-05T11:39:52.065Z,66.10
2022-09-05T11:39:54.439Z,66.90
2022-09-05T11:42:30.696Z,68.20
2022-09-05T11:45:23.582Z,68.80
2022-09-05T11:48:36.448Z,69.60
2022-09-05T11:51:51.281Z,70.00
2022-09-05T11:54:57.917Z,70.20
2022-09-05T11:57:49.288Z,70.60
2022-09-05T12:00:31.310Z,71.50
2022-09-05T12:03:59.755Z,71.70
2022-09-05T12:06:48.076Z,71.50
2022-09-05T12:09:27.633Z,71.50
2022-09-05T12:12:18.697Z,71.40
2022-09-05T12:15:12.718Z,71.20
2022-09-05T12:17:51.700Z,71.40
2022-09-05T12:20:29.098Z,70.90
2022-09-05T12:23:03.769Z,70.90
2022-09-05T12:27:39.352Z,71.00
2022-09-05T12:32:19.633Z,70.80
2022-09-05T12:36:08.151Z,70.90
2022-09-05T12:40:16.613Z,70.80
2022-09-05T12:40:59.581Z,70.70
2022-09-05T12:42:10.481Z,71.00
2022-09-05T12:44:29.920Z,70.60
2022-09-05T12:46:23.614Z,70.30
2022-09-05T12:49:06.720Z,70.20
2022-09-05T12:51:46.725Z,70.20
2022-09-05T12:54:33.157Z,69.90
2022-09-05T13:01:30.634Z,69.60
2022-09-05T13:03:04.929Z,69.30
2022-09-05T13:03:07.542Z,69.40
2022-09-05T13:06:04.882Z,69.30
2022-09-05T13:08:43.862Z,69.20
2022-09-05T13:14:48.062Z,69.20
2022-09-05T13:14:53.766Z,69.30
2022-09-05T13:16:57.023Z,69.40
2022-09-05T13:19:33.536Z,69.40
2022-09-05T13:22:05.041Z,69.40
2022-09-05T13:24:38.499Z,69.40
2022-09-05T13:27:13.612Z,69.10
2022-09-05T13:31:18.317Z,69.10
2022-09-05T13:38:05.633Z,69.10
2022-09-05T13:38:17.980Z,69.10
2022-09-05T13:38:48.845Z,69.10
2022-09-05T13:41:28.342Z,69.30
2022-09-05T13:44:00.428Z,69.10
2022-09-05T13:46:58.240Z,65.00
2022-09-05T13:49:32.357Z,67.00
2022-09-05T13:52:13.778Z,66.80
2022-09-05T13:54:51.705Z,66.60
2022-09-05T13:57:36.867Z,65.30
2022-09-05T14:00:28.875Z,65.80
2022-09-05T14:03:40.196Z,65.80
2022-09-05T14:06:48.809Z,66.00
2022-09-05T14:09:37.093Z,65.90
2022-09-05T14:12:15.105Z,66.10
2022-09-05T14:17:56.669Z,66.00
2022-09-05T14:20:49.762Z,66.20
2022-09-05T14:23:19.969Z,66.30
2022-09-05T14:25:52.473Z,66.60
2022-09-05T14:28:28.673Z,66.90
2022-09-05T14:37:34.392Z,66.70
2022-09-05T14:37:41.494Z,67.20
2022-09-05T14:38:00.489Z,63.70
2022-09-05T14:41:08.225Z,66.50
2022-09-05T14:44:00.581Z,64.40
2022-09-05T14:46:55.701Z,63.10
2022-09-05T14:49:55.022Z,63.50
2022-09-05T14:52:26.971Z,62.50
2022-09-05T15:02:47.895Z,61.40
2022-09-05T15:02:50.942Z,61.60
2022-09-05T15:06:36.690Z,60.80
2022-09-05T15:11:25.902Z,61.10
2022-09-05T15:12:23.172Z,62.00
2022-09-05T15:14:52.217Z,61.50
2022-09-05T15:17:26.141Z,61.60
2022-09-05T15:20:05.542Z,60.30
2022-09-05T15:22:37.745Z,59.50
2022-09-05T15:25:17.271Z,58.20
2022-09-05T15:27:46.122Z,56.90
2022-09-05T15:30:20.412Z,56.70
2022-09-05T15:32:50.983Z,57.10
2022-09-05T15:35:36.509Z,57.00
2022-09-05T15:38:27.201Z,56.80
2022-09-05T15:41:22.915Z,56.80
2022-09-05T15:43:56.723Z,58.30
2022-09-05T15:46:30.916Z,57.30
2022-09-05T15:49:09.688Z,55.40
2022-09-05T15:51:47.893Z,56.10
2022-09-05T15:54:37.418Z,56.20
2022-09-05T15:57:09.908Z,56.70
2022-09-05T15:59:49.106Z,57.10
2022-09-05T16:02:20.435Z,56.50
2022-09-05T16:10:27.569Z,55.60
2022-09-05T16:10:45.158Z,56.40
2022-09-05T16:11:19.743Z,55.70
2022-09-05T16:13:45.867Z,56.00
2022-09-05T16:23:19.951Z,55.90
2022-09-05T16:23:20.088Z,55.50
2022-09-05T16:23:26.466Z,54.70
2022-09-05T16:25:00.878Z,53.90
2022-09-05T16:27:51.521Z,55.00
2022-09-05T16:30:28.409Z,55.20
2022-09-05T16:33:03.159Z,54.80
2022-09-05T16:35:35.092Z,54.80
2022-09-05T16:38:12.706Z,55.10
2022-09-05T16:40:43.417Z,55.20
2022-09-05T16:43:16.736Z,55.20
2022-09-05T16:45:51.940Z,54.80
2022-09-05T16:48:38.117Z,54.90
2022-09-05T16:51:17.649Z,55.30
2022-09-05T16:54:04.101Z,55.40
2022-09-05T16:56:43.285Z,55.00
2022-09-05T16:59:15.686Z,55.10
2022-09-05T17:02:08.201Z,55.00
2022-09-05T17:05:04.225Z,55.40
2022-09-05T17:07:53.549Z,55.50
2022-09-05T17:10:26.801Z,55.30
2022-09-05T17:12:56.018Z,55.30
2022-09-05T17:15:29.069Z,55.40
2022-09-05T17:18:22.756Z,55.50
2022-09-05T17:20:56.910Z,55.50
2022-09-05T17:29:17.194Z,55.50
2022-09-05T17:29:36.535Z,55.60
2022-09-05T17:32:47.308Z,55.90
2022-09-05T17:35:41.476Z,55.80
2022-09-05T17:38:42.208Z,55.70
2022-09-05T17:41:55.997Z,55.70
2022-09-05T17:44:29.378Z,55.80
2022-09-05T17:47:15.293Z,55.70
2022-09-05T17:49:45.184Z,56.00
2022-09-05T17:52:23.828Z,55.70
2022-09-05T17:54:53.869Z,55.70
2022-09-05T17:57:40.944Z,55.80
2022-09-05T18:00:47.147Z,55.70
2022-09-05T18:03:47.696Z,55.90
2022-09-05T18:06:33.064Z,55.90
2022-09-05T18:09:08.793Z,56.00
2022-09-05T18:11:44.745Z,56.00
2022-09-05T18:14:42.899Z,56.10
2022-09-05T18:18:01.086Z,56.20
2022-09-05T18:20:37.107Z,56.30
2022-09-05T18:23:43.632Z,56.50
2022-09-05T18:26:20.873Z,56.60
2022-09-05T18:28:56.783Z,56.60
2022-09-05T18:32:00.024Z,56.60
2022-09-05T18:34:45.204Z,56.60
2022-09-05T18:37:59.323Z,56.70
2022-09-05T18:40:47.874Z,56.70
2022-09-05T18:43:27.671Z,56.80
2022-09-05T18:45:59.289Z,56.90
2022-09-05T18:48:42.690Z,56.90
2022-09-05T18:51:16.036Z,56.90
2022-09-05T18:53:47.441Z,56.90
2022-09-05T18:56:27.417Z,57.00
2022-09-05T18:59:10.360Z,57.10
2022-09-05T19:01:43.467Z,57.10
2022-09-05T19:04:39.509Z,57.10
2022-09-05T19:07:13.310Z,57.20
2022-09-05T19:10:09.513Z,57.20
2022-09-05T19:12:53.483Z,57.30
2022-09-05T19:15:24.793Z,57.30
2022-09-05T19:17:59.911Z,57.40
2022-09-05T19:21:11.878Z,57.50
2022-09-05T19:23:44.505Z,57.30
2022-09-05T19:26:13.054Z,57.50
2022-09-05T19:36:49.283Z,57.50
2022-09-05T19:36:57.370Z,57.50
2022-09-05T19:37:15.102Z,57.10
2022-09-05T19:37:28.923Z,57.30
2022-09-05T19:47:25.089Z,56.90
2022-09-05T19:47:43.039Z,57.30
2022-09-05T19:47:50.994Z,57.10
2022-09-05T19:48:34.785Z,57.00
2022-09-05T19:51:17.839Z,56.90
2022-09-05T19:53:55.241Z,56.80
2022-09-05T19:56:36.443Z,56.80
2022-09-05T19:59:16.811Z,57.20
2022-09-05T20:01:46.154Z,57.10
2022-09-05T20:04:18.478Z,57.30
2022-09-05T20:06:47.222Z,57.70
2022-09-05T20:09:17.947Z,57.70
2022-09-05T20:11:50.341Z,58.40
2022-09-05T20:14:20.887Z,58.00
2022-09-05T20:16:49.775Z,58.10
2022-09-05T20:19:35.293Z,58.10
2022-09-05T20:22:21.188Z,58.10
2022-09-05T20:24:56.725Z,58.30
2022-09-05T20:27:28.069Z,58.40
2022-09-05T20:29:58.174Z,58.50
2022-09-05T20:32:38.644Z,58.60
2022-09-05T20:37:40.174Z,58.70
2022-09-05T20:43:15.474Z,58.90
2022-09-05T20:43:20.295Z,58.70
2022-09-05T20:43:53.328Z,59.00
2022-09-05T20:52:49.060Z,59.10
2022-09-05T20:54:17.182Z,59.20
2022-09-05T20:54:17.380Z,59.20
2022-09-05T20:55:39.839Z,59.30
2022-09-05T20:58:13.085Z,59.40
2022-09-05T21:01:20.464Z,59.50
2022-09-05T21:03:37.744Z,59.50
2022-09-05T21:06:19.906Z,59.40
2022-09-05T21:08:47.821Z,59.60
2022-09-05T21:11:16.180Z,59.70
2022-09-05T21:13:53.332Z,59.70
2022-09-05T21:16:27.690Z,59.70
2022-09-05T21:18:55.954Z,59.80
2022-09-05T21:21:28.571Z,59.80
2022-09-05T21:24:17.850Z,59.90
2022-09-05T21:26:48.656Z,59.90
2022-09-05T21:29:25.614Z,59.80
2022-09-05T21:32:02.478Z,60.60
2022-09-05T21:34:45.253Z,59.90
2022-09-05T21:37:15.069Z,59.90
2022-09-05T21:39:59.137Z,60.00
2022-09-05T21:46:26.625Z,60.00
2022-09-05T21:47:46.312Z,60.00
2022-09-05T21:48:13.122Z,60.10
2022-09-05T21:50:45.145Z,60.10
2022-09-05T21:55:02.789Z,60.20
2022-09-05T21:59:25.703Z,60.30
2022-09-05T21:59:29.147Z,60.20
2022-09-05T22:01:53.466Z,60.20
2022-09-05T22:04:22.487Z,60.30
2022-09-05T22:06:52.967Z,60.30
2022-09-05T22:09:22.021Z,60.30
2022-09-05T22:11:51.297Z,60.40
2022-09-05T22:14:19.789Z,60.50
2022-09-05T22:16:51.051Z,60.50
2022-09-05T22:19:36.831Z,60.50
2022-09-05T22:22:15.421Z,60.60
2022-09-05T22:24:47.249Z,60.60
2022-09-05T22:27:19.847Z,60.50
2022-09-05T22:29:50.591Z,60.60
2022-09-05T22:32:34.012Z,60.40
2022-09-05T22:35:27.449Z,60.40
2022-09-05T22:38:00.164Z,60.50
2022-09-05T22:40:29.130Z,60.60
2022-09-05T22:42:57.712Z,60.60
2022-09-05T22:45:25.902Z,60.60
2022-09-05T22:47:53.907Z,60.60
2022-09-05T22:50:23.953Z,60.70
2022-09-05T22:52:51.980Z,60.70
2022-09-05T22:55:19.923Z,60.80
2022-09-05T22:57:47.784Z,60.80
2022-09-05T23:00:16.246Z,60.60
2022-09-05T23:02:46.058Z,60.80
2022-09-05T23:05:15.961Z,60.70
2022-09-05T23:07:45.082Z,60.80
2022-09-05T23:10:12.997Z,60.90
2022-09-05T23:12:40.817Z,60.90
2022-09-05T23:15:09.801Z,60.90
2022-09-05T23:17:37.573Z,60.90
2022-09-05T23:20:06.025Z,60.70
2022-09-05T23:22:36.463Z,60.60
2022-09-05T23:25:06.201Z,60.70
2022-09-05T23:27:36.604Z,60.70
2022-09-05T23:30:05.630Z,60.80
2022-09-05T23:32:33.886Z,60.80
2022-09-05T23:35:01.809Z,60.70
2022-09-05T23:37:29.791Z,60.90
2022-09-05T23:39:57.913Z,60.80
2022-09-05T23:42:27.440Z,61.50
2022-09-05T23:44:55.245Z,60.70
2022-09-05T23:47:23.029Z,60.90
2022-09-05T23:49:50.837Z,60.70
2022-09-05T23:52:18.678Z,60.70
2022-09-05T23:54:46.492Z,60.60
2022-09-05T23:57:14.318Z,60.60
2022-09-05T23:59:43.422Z,60.90
